D/T METAR WX W/DIR W/SPE G/SPE TEMP DEWP
16/01/19 02:50 EGXT 160250Z AUTO 22015KT 9999 BKN014/// 08/06 Q1007 SW (220°) 17.3mph 8°C 6°C
16/01/19 01:50 EGXT 160150Z AUTO 21016KT 9999 SCT014/// BKN029/// BKN210/// 08/06 Q1007 SSW (210°) 18.4mph 8°C 6°C
16/01/19 00:50 EGXT 160050Z AUTO 22015KT 9999 SCT013/// BKN029/// 07/05 Q1008 SW (220°) 17.3mph 7°C 5°C
15/01/19 23:50 EGXT 152350Z AUTO 23016KT 9999 SCT012/// BKN027/// 08/06 Q1009 SW (230°) 18.4mph 8°C 6°C
15/01/19 22:50 EGXT 152250Z AUTO 22014KT 9999 FEW013/// BKN024/// 08/06 Q1010 SW (220°) 16.1mph 8°C 6°C
15/01/19 21:50 EGXT 152150Z AUTO 21011KT 9999 BKN027/// BKN150/// 07/05 Q1011 SSW (210°) 12.7mph 7°C 5°C
15/01/19 20:50 EGXT 152050Z AUTO 23013KT 9999 BKN030/// BKN160/// 08/05 Q1011 SW (230°) 15.0mph 8°C 5°C
15/01/19 19:50 EGXT 151950Z AUTO 22011KT 9999 OVC170/// 08/05 Q1012 SW (220°) 12.7mph 8°C 5°C
15/01/19 18:50 EGXT 151850Z AUTO 23012KT 9999 FEW032/// OVC190/// 08/05 Q1012 SW (230°) 13.8mph 8°C 5°C
15/01/19 17:50 EGXT 151750Z AUTO 23013KT 9999 BKN033/// BKN190/// 08/05 Q1012 SW (230°) 15.0mph 8°C 5°C
15/01/19 16:50 EGXT 151650Z AUTO 23015KT 9999 OVC033/// 09/05 Q1013 SW (230°) 17.3mph 9°C 5°C
15/01/19 15:50 EGXT 151550Z AUTO 24012KT 9999 BKN035/// 09/05 Q1014 WSW (240°) 13.8mph 9°C 5°C
15/01/19 14:57 EGXT 151457Z 24013KT 9999 FEW012 BKN038 BKN200 09/05 Q1014 BLU WSW (240°) 15.0mph 9°C 5°C
15/01/19 13:50 EGXT 151350Z 24013KT 9999 FEW016 BKN200 09/05 Q1015 BLU WSW (240°) 15.0mph 9°C 5°C
15/01/19 12:50 EGXT 151250Z 24016KT 9999 FEW016 SCT230 09/05 Q1015 BLU WSW (240°) 18.4mph 9°C 5°C
15/01/19 11:50 EGXT 151150Z 24017KT CAVOK 09/05 Q1016 BLU WSW (240°) 19.6mph 9°C 5°C
15/01/19 10:50 EGXT 151050Z 24016KT 9999 FEW045 08/05 Q1016 BLU WSW (240°) 18.4mph 8°C 5°C
15/01/19 09:50 EGXT 150950Z 24015KT 9999 FEW042 07/05 Q1017 BLU WSW (240°) 17.3mph 7°C 5°C
15/01/19 08:50 EGXT 150850Z 24014KT 9999 FEW042 06/04 Q1017 BLU WSW (240°) 16.1mph 6°C 4°C
15/01/19 07:50 EGXT 150750Z 24013KT 9999 BKN037 06/04 Q1017 BLU WSW (240°) 15.0mph 6°C 4°C
15/01/19 06:50 EGXT 150650Z 23012KT 9999 OVC034 06/04 Q1017 BLU SW (230°) 13.8mph 6°C 4°C
15/01/19 05:50 EGXT 150550Z AUTO 23011KT 9999 OVC031/// 05/04 Q1017 SW (230°) 12.7mph 5°C 4°C
15/01/19 04:50 EGXT 150450Z AUTO 22009KT 9999 BKN030/// 04/03 Q1018 SW (220°) 10.4mph 4°C 3°C
15/01/19 03:50 EGXT 150350Z AUTO 24012KT 9999 NCD 03/02 Q1018 WSW (240°) 13.8mph 3°C 2°C
15/01/19 02:50 EGXT 150250Z AUTO 25013KT 9999 SCT033/// 04/02 Q1019 WSW (250°) 15.0mph 4°C 2°C
15/01/19 01:50 EGXT 150150Z AUTO 25013KT 9999 FEW036/// 04/02 Q1019 WSW (250°) 15.0mph 4°C 2°C
15/01/19 00:50 EGXT 150050Z AUTO 24010KT 9999 NCD 03/01 Q1020 WSW (240°) 11.5mph 3°C 1°C
14/01/19 23:50 EGXT 142350Z AUTO 25009KT 9999 NCD 03/02 Q1020 WSW (250°) 10.4mph 3°C 2°C
14/01/19 22:50 EGXT 142250Z AUTO 25010KT 9999 NCD 04/02 Q1020 WSW (250°) 11.5mph 4°C 2°C
14/01/19 21:50 EGXT 142150Z AUTO 25008KT 9999 NCD 04/03 Q1021 WSW (250°) 9.2mph 4°C 3°C
14/01/19 20:50 EGXT 142050Z AUTO 27006KT 9999 BKN038/// 05/04 Q1021 W (270°) 6.9mph 5°C 4°C
14/01/19 19:50 EGXT 141950Z AUTO 26009KT 9999 SCT045/// 04/03 Q1021 W (260°) 10.4mph 4°C 3°C
14/01/19 18:50 EGXT 141850Z AUTO 27009KT 9999 OVC050/// 06/04 Q1021 W (270°) 10.4mph 6°C 4°C
14/01/19 17:50 EGXT 141750Z AUTO 28007KT 9999 OVC050/// 06/03 Q1021 W (280°) 8.1mph 6°C 3°C
14/01/19 16:50 EGXT 141650Z AUTO 28010KT 9999 BKN050/// 07/03 Q1020 W (280°) 11.5mph 7°C 3°C
14/01/19 15:50 EGXT 141550Z 30007KT 9999 SCT024 SCT031 BKN046 07/04 Q1020 WHT WNW (300°) 8.1mph 7°C 4°C
14/01/19 14:50 EGXT 141450Z 30006KT 9999 FEW022 SCT030 BKN049 08/03 Q1020 BLU WNW (300°) 6.9mph 8°C 3°C
14/01/19 13:50 EGXT 141350Z 31011KT 9999 FEW022 SCT025 BKN042 08/03 Q1019 BLU NW (310°) 12.7mph 8°C 3°C
14/01/19 12:50 EGXT 141250Z 29010KT 9999 SCT022 BKN043 09/04 Q1019 WHT WNW (290°) 11.5mph 9°C 4°C
14/01/19 12:11 EGXT 141211Z 30010KT 9999 SCT022 BKN043 08/04 Q1020 WHT WNW (300°) 11.5mph 8°C 4°C
14/01/19 10:50 EGXT 141050Z 30011KT 9999 FEW038 BKN047 07/04 Q1019 BLU WNW (300°) 12.7mph 7°C 4°C
14/01/19 09:50 EGXT 140950Z 28006KT 9999 BKN043 06/04 Q1019 BLU W (280°) 6.9mph 6°C 4°C
14/01/19 08:50 EGXT 140850Z AUTO 29010KT 9999 BKN150/// 06/03 Q1018 WNW (290°) 11.5mph 6°C 3°C
14/01/19 07:50 EGXT 140750Z AUTO 30009KT 9999 BKN160/// 05/03 Q1017 WNW (300°) 10.4mph 5°C 3°C
14/01/19 06:50 EGXT 140650Z AUTO 31012KT 9999 BKN190/// 06/03 Q1016 NW (310°) 13.8mph 6°C 3°C
14/01/19 05:50 EGXT 140550Z AUTO 30010KT 9999 SCT170/// 05/03 Q1016 WNW (300°) 11.5mph 5°C 3°C
14/01/19 04:50 EGXT 140450Z AUTO 29012KT 9999 NCD 06/03 Q1015 WNW (290°) 13.8mph 6°C 3°C
14/01/19 03:50 EGXT 140350Z AUTO 28014KT 9999 NCD 06/03 Q1014 W (280°) 16.1mph 6°C 3°C
14/01/19 02:50 EGXT 140250Z AUTO 28012KT 9999 NCD 06/03 Q1014 W (280°) 13.8mph 6°C 3°C
14/01/19 01:50 EGXT 140150Z AUTO 29013KT 9999 NCD 06/03 Q1013 WNW (290°) 15.0mph 6°C 3°C
14/01/19 00:50 EGXT 140050Z AUTO 29017KT 9999 FEW026/// 07/03 Q1012 WNW (290°) 19.6mph 7°C 3°C
13/01/19 23:50 EGXT 132350Z AUTO 29016KT 9999 NCD 06/03 Q1012 WNW (290°) 18.4mph 6°C 3°C
13/01/19 22:50 EGXT 132250Z AUTO 29016KT 9999 FEW028/// 07/03 Q1011 WNW (290°) 18.4mph 7°C 3°C
13/01/19 21:50 EGXT 132150Z AUTO 30017KT 9999 SCT046/// 08/03 Q1011 RERA WNW (300°) 19.6mph 8°C 3°C
13/01/19 20:50 EGXT 132050Z AUTO 30013KT 9999 SCT036/// BKN050/// 08/03 Q1011 RERA WNW (300°) 15.0mph 8°C 3°C
13/01/19 19:50 EGXT 131950Z AUTO 30017KT 9999 SCT050/// 08/03 Q1010 RERA WNW (300°) 19.6mph 8°C 3°C
13/01/19 18:50 EGXT 131850Z AUTO 31015G25KT 9999 FEW042/// 08/03 Q1009 NW (310°) 17.3mph 28.8mph 8°C 3°C
13/01/19 17:50 EGXT 131750Z AUTO 31015KT 9999 SCT027/// SCT035/// BKN045/// 09/05 Q1009 RERA NW (310°) 17.3mph 9°C 5°C
13/01/19 16:50 EGXT 131650Z AUTO 29019KT 9999 FEW028/// SCT032/// BKN037/// 10/06 Q1008 WNW (290°) 21.9mph 10°C 6°C
13/01/19 15:50 EGXT 131550Z AUTO 29022G35KT 9999 SCT030/// SCT042/// BKN160/// 11/06 Q1008 WNW (290°) 25.3mph 40.3mph 11°C 6°C
13/01/19 14:50 EGXT 131450Z AUTO 29017KT 9999 FEW029/// BKN039/// BKN150/// 11/07 Q1008 WNW (290°) 19.6mph 11°C 7°C
13/01/19 13:50 EGXT 131350Z AUTO 28012KT 9999 FEW008/// BKN017/// 10/08 Q1008 W (280°) 13.8mph 10°C 8°C
13/01/19 12:50 EGXT 131250Z AUTO 25012KT 5000 BR OVC004/// 09/09 Q1008 BR WSW (250°) 13.8mph 9°C 9°C
13/01/19 11:50 EGXT 131150Z AUTO 25015KT 6000 BR BKN005/// BKN012/// 09/08 Q1009 BR WSW (250°) 17.3mph 9°C 8°C
13/01/19 10:50 EGXT 131050Z AUTO 26018KT 5000 HZ BKN012/// SCT050/// 09/07 Q1011 HZ W (260°) 20.7mph 9°C 7°C
13/01/19 09:50 EGXT 130950Z AUTO 27020KT 9999 SCT020/// BKN170/// 10/07 Q1011 W (270°) 23.0mph 10°C 7°C
13/01/19 08:50 EGXT 130850Z AUTO 27020KT 9999 FEW021/// SCT180/// BKN250/// 10/06 Q1010 W (270°) 23.0mph 10°C 6°C
13/01/19 07:50 EGXT 130750Z AUTO 27020KT 9999 SCT024/// BKN140/// 10/06 Q1011 W (270°) 23.0mph 10°C 6°C
13/01/19 06:50 EGXT 130650Z AUTO 27022KT 9999 SCT020/// OVC110/// 10/07 Q1011 W (270°) 25.3mph 10°C 7°C
13/01/19 05:50 EGXT 130550Z AUTO 28014KT 9999 OVC020/// 10/07 Q1012 W (280°) 16.1mph 10°C 7°C
13/01/19 04:50 EGXT 130450Z AUTO 28018KT 9999 BKN022/// BKN150/// 10/06 Q1012 W (280°) 20.7mph 10°C 6°C
13/01/19 03:50 EGXT 130350Z AUTO 28025KT 9999 SCT022/// BKN110/// BKN150/// 11/07 Q1013 W (280°) 28.8mph 11°C 7°C
13/01/19 02:50 EGXT 130250Z AUTO 28025KT 9999 FEW021/// BKN110/// 11/07 Q1013 W (280°) 28.8mph 11°C 7°C
13/01/19 01:50 EGXT 130150Z AUTO 29024KT 9999 BKN021/// SCT100/// BKN120/// 11/07 Q1014 WNW (290°) 27.6mph 11°C 7°C
13/01/19 00:50 EGXT 130050Z AUTO 28020KT 9999 BKN021/// BKN090/// 11/07 Q1014 W (280°) 23.0mph 11°C 7°C
12/01/19 23:50 EGXT 122350Z AUTO 29024KT 9999 OVC017/// 11/08 Q1015 WNW (290°) 27.6mph 11°C 8°C
12/01/19 22:50 EGXT 122250Z AUTO 28019G29KT 9999 OVC016/// 10/08 Q1015 W (280°) 21.9mph 33.4mph 10°C 8°C
12/01/19 21:50 EGXT 122150Z AUTO 28019KT 9999 OVC016/// 10/08 Q1015 W (280°) 21.9mph 10°C 8°C
12/01/19 20:50 EGXT 122050Z AUTO 27016KT 9999 OVC014/// 09/08 Q1015 W (270°) 18.4mph 9°C 8°C
12/01/19 19:50 EGXT 121950Z AUTO 28015KT 8000 HZ OVC013/// 09/07 Q1016 RERA HZ W (280°) 17.3mph 9°C 7°C
12/01/19 18:50 EGXT 121850Z AUTO 27015KT 9999 -RA OVC016/// 08/07 Q1016 -RA W (270°) 17.3mph 8°C 7°C
12/01/19 17:50 EGXT 121750Z AUTO 27013KT 9999 OVC017/// 08/07 Q1017 RERA W (270°) 15.0mph 8°C 7°C
12/01/19 16:50 EGXT 121650Z AUTO 27014KT 9999 -RA OVC020/// 08/06 Q1017 -RA W (270°) 16.1mph 8°C 6°C
12/01/19 15:50 EGXT 121550Z AUTO 27014KT 9999 BKN021/// BKN070/// 08/06 Q1018 RERA W (270°) 16.1mph 8°C 6°C
12/01/19 14:50 EGXT 121450Z AUTO 27020KT 9999 FEW028/// BKN070/// 09/06 Q1018 W (270°) 23.0mph 9°C 6°C
12/01/19 13:50 EGXT 121350Z AUTO 28019KT 9999 FEW018/// SCT028/// BKN080/// 09/06 Q1018 W (280°) 21.9mph 9°C 6°C
12/01/19 12:50 EGXT 121250Z AUTO 28019KT 9999 FEW018/// BKN090/// 09/06 Q1018 W (280°) 21.9mph 9°C 6°C
12/01/19 11:50 EGXT 121150Z AUTO 28018KT 9999 BKN090/// 09/06 Q1019 W (280°) 20.7mph 9°C 6°C
12/01/19 10:50 EGXT 121050Z AUTO 27014KT 9999 SCT018/// SCT036/// 09/07 Q1020 W (270°) 16.1mph 9°C 7°C
12/01/19 09:50 EGXT 120950Z AUTO 27013KT 9999 SCT038/// BKN120/// 08/07 Q1020 W (270°) 15.0mph 8°C 7°C
12/01/19 08:50 EGXT 120850Z AUTO 25013KT 9999 FEW010/// SCT013/// BKN150/// 08/07 Q1020 RERA WSW (250°) 15.0mph 8°C 7°C
12/01/19 07:50 EGXT 120750Z AUTO 24015KT 4000 -DZ FEW016/// BKN030/// 08/07 Q1020 -DZ WSW (240°) 17.3mph 8°C 7°C
12/01/19 06:50 EGXT 120650Z AUTO 25013KT 9999 BKN050/// BKN200/// 08/06 Q1021 RERA WSW (250°) 15.0mph 8°C 6°C
12/01/19 05:50 EGXT 120550Z AUTO 25014KT 9999 FEW017/// BKN050/// BKN190/// 08/06 Q1021 WSW (250°) 16.1mph 8°C 6°C
12/01/19 04:50 EGXT 120450Z AUTO 25015KT 9999 SCT025/// SCT060/// BKN190/// 08/06 Q1022 WSW (250°) 17.3mph 8°C 6°C
12/01/19 03:50 EGXT 120350Z AUTO 24012KT 9999 FEW018/// OVC021/// 07/05 Q1023 WSW (240°) 13.8mph 7°C 5°C
12/01/19 02:50 EGXT 120250Z AUTO 25010KT 9999 OVC023/// 07/05 Q1024 WSW (250°) 11.5mph 7°C 5°C
12/01/19 01:50 EGXT 120150Z AUTO 25010KT 9999 OVC024/// 07/04 Q1024 WSW (250°) 11.5mph 7°C 4°C
12/01/19 00:50 EGXT 120050Z AUTO 25010KT 9999 OVC029/// 07/04 Q1025 WSW (250°) 11.5mph 7°C 4°C
11/01/19 23:50 EGXT 112350Z AUTO 24009KT 9999 OVC029/// 07/04 Q1026 WSW (240°) 10.4mph 7°C 4°C
11/01/19 22:50 EGXT 112250Z AUTO 24010KT 9999 OVC030/// 06/04 Q1027 WSW (240°) 11.5mph 6°C 4°C
11/01/19 21:50 EGXT 112150Z AUTO 25009KT 9999 OVC029/// 06/04 Q1028 WSW (250°) 10.4mph 6°C 4°C
11/01/19 20:50 EGXT 112050Z AUTO 25008KT 9999 OVC027/// 06/03 Q1028 WSW (250°) 9.2mph 6°C 3°C
11/01/19 19:50 EGXT 111950Z AUTO 28004KT 9999 FEW029/// BKN034/// 06/03 Q1028 W (280°) 4.6mph 6°C 3°C
11/01/19 18:50 EGXT 111850Z AUTO 31007KT 9999 BKN022/// SCT026/// BKN030/// 06/03 Q1029 NW (310°) 8.1mph 6°C 3°C
11/01/19 17:50 EGXT 111750Z AUTO 28009KT 9999 OVC030/// 07/03 Q1029 W (280°) 10.4mph 7°C 3°C
11/01/19 16:50 EGXT 111650Z AUTO 29007KT 9999 BKN030/// 07/04 Q1029 WNW (290°) 8.1mph 7°C 4°C
11/01/19 15:50 EGXT 111550Z 29007KT 9999 BKN035 07/04 Q1029 BLU WNW (290°) 8.1mph 7°C 4°C
11/01/19 14:50 EGXT 111450Z 29008KT 9999 BKN038 07/04 Q1029 BLU WNW (290°) 9.2mph 7°C 4°C
11/01/19 13:50 EGXT 111350Z 30009KT 9999 BKN039 SCT220 07/04 Q1029 BLU WNW (300°) 10.4mph 7°C 4°C
11/01/19 12:50 EGXT 111250Z 31009KT 9999 BKN040 07/04 Q1029 BLU NW (310°) 10.4mph 7°C 4°C
11/01/19 11:50 EGXT 111150Z 30009KT 9999 BKN042 07/04 Q1030 BLU WNW (300°) 10.4mph 7°C 4°C
11/01/19 10:50 EGXT 111050Z 31008KT 9999 BKN042 07/04 Q1030 BLU NW (310°) 9.2mph 7°C 4°C
11/01/19 09:50 EGXT 110950Z 31008KT 9999 BKN043 06/04 Q1029 BLU NW (310°) 9.2mph 6°C 4°C
11/01/19 08:50 EGXT 110850Z 31007KT 9999 BKN048 06/04 Q1029 BLU NW (310°) 8.1mph 6°C 4°C
11/01/19 07:50 EGXT 110750Z 32007KT CAVOK 06/04 Q1029 BLU NW (320°) 8.1mph 6°C 4°C
11/01/19 06:50 EGXT 110650Z 31007KT CAVOK 06/04 Q1029 BLU NW (310°) 8.1mph 6°C 4°C
11/01/19 05:50 EGXT 110550Z AUTO 32007KT 9999 OVC050/// 06/04 Q1028 NW (320°) 8.1mph 6°C 4°C
11/01/19 04:50 EGXT 110450Z AUTO 32007KT 9999 BKN050/// 06/04 Q1028 RERA NW (320°) 8.1mph 6°C 4°C
11/01/19 03:50 EGXT 110350Z AUTO 32008KT 9999 FEW026/// BKN050/// 06/04 Q1028 RERA NW (320°) 9.2mph 6°C 4°C
11/01/19 02:50 EGXT 110250Z AUTO 32008KT 9999 SCT029/// OVC060/// 06/04 Q1028 RERA NW (320°) 9.2mph 6°C 4°C
11/01/19 01:50 EGXT 110150Z AUTO 32008KT 9999 BKN050/// 06/05 Q1028 RERA NW (320°) 9.2mph 6°C 5°C
11/01/19 00:50 EGXT 110050Z AUTO 32009KT 9999 BKN022/// 07/05 Q1028 NW (320°) 10.4mph 7°C 5°C
10/01/19 23:50 EGXT 102350Z AUTO 31009KT 7000 BR BKN018/// 07/06 Q1028 RERA BR NW (310°) 10.4mph 7°C 6°C
10/01/19 22:50 EGXT 102250Z AUTO 31009KT 4700 +DZ OVC018/// 07/06 Q1028 +DZ NW (310°) 10.4mph 7°C 6°C
10/01/19 21:50 EGXT 102150Z AUTO 30009KT 9999 FEW020/// BKN050/// 07/05 Q1028 WNW (300°) 10.4mph 7°C 5°C
10/01/19 20:50 EGXT 102050Z AUTO 30009KT 9999 OVC050/// 07/05 Q1028 WNW (300°) 10.4mph 7°C 5°C
10/01/19 19:50 EGXT 101950Z AUTO 29007KT 9999 OVC050/// 07/06 Q1028 WNW (290°) 8.1mph 7°C 6°C
10/01/19 18:50 EGXT 101850Z AUTO 30009KT 9999 OVC050/// 07/05 Q1028 WNW (300°) 10.4mph 7°C 5°C
10/01/19 17:50 EGXT 101750Z AUTO 29008KT 9999 OVC050/// 07/06 Q1028 WNW (290°) 9.2mph 7°C 6°C
10/01/19 16:50 EGXT 101650Z AUTO 28007KT 7000 HZ FEW008/// BKN050/// 06/05 Q1028 HZ W (280°) 8.1mph 6°C 5°C
10/01/19 15:50 EGXT 101550Z 29008KT 9000 HZ BKN007 SCT012 06/05 Q1028 GRN HZ WNW (290°) 9.2mph 6°C 5°C
10/01/19 14:50 EGXT 101450Z 28006KT 3800 HZ BKN009 SCT018 06/04 Q1028 GRN HZ W (280°) 6.9mph 6°C 4°C
10/01/19 13:50 EGXT 101350Z 29006KT 9999 HZ BKN014 BKN024 06/04 Q1028 GRN HZ WNW (290°) 6.9mph 6°C 4°C
10/01/19 13:22 EGXT 101322Z 31007KT 9999 SCT024 BKN050 06/03 Q1028 WHT NW (310°) 8.1mph 6°C 3°C
10/01/19 12:50 EGXT 101250Z 31007KT 9999 BKN038 05/03 Q1029 BLU NW (310°) 8.1mph 5°C 3°C
10/01/19 11:50 EGXT 101150Z 29006KT 9999 BKN041 05/02 Q1029 BLU WNW (290°) 6.9mph 5°C 2°C
10/01/19 10:50 EGXT 101050Z 27007KT 9999 BKN041 03/01 Q1030 BLU W (270°) 8.1mph 3°C 1°C
10/01/19 09:50 EGXT 100950Z 28007KT 9999 FEW041 BKN065 02/00 Q1030 BLU W (280°) 8.1mph 2°C 0°C
10/01/19 08:50 EGXT 100850Z 27005KT 9999 BKN045 02/00 Q1030 BLU W (270°) 5.8mph 2°C 0°C
10/01/19 07:50 EGXT 100750Z 27007KT CAVOK 01/00 Q1030 BLU W (270°) 8.1mph 1°C 0°C
10/01/19 06:50 EGXT 100650Z AUTO 28007KT 9999 FEW050/// BKN090/// BKN190/// 01/M00 Q1029 W (280°) 8.1mph 1°C 0°C
10/01/19 05:50 EGXT 100550Z AUTO 28006KT 9999 OVC090/// 01/M01 Q1029 W (280°) 6.9mph 1°C -1°C
10/01/19 04:50 EGXT 100450Z AUTO 29005KT 9999 BKN090/// 01/M00 Q1029 WNW (290°) 5.8mph 1°C 0°C